首页
METAR-TAF:

METAR-TAF

机场 :

喀什机场

喀什, 中华人民共和国

纬度: 39-28N, 经度: 075-59E, 海拔: 1291米

当前天气观测

该预报发布于36分钟前的03:00 UTC
风速2节,风向多变
温度 18°C
湿度 56%
气压 1020 hPa
能见度10公里或以上
少量云层高于4000英尺, 积雨云.

METAR: ZWSH 200300Z VRB01MPS 9999 FEW040CB 18/09 Q1020 NOSIG

时间: 11:36 (03:36 UTC)

预报

该预报发布于6小时和12分钟前的21:24 UTC
预报有效从20日的 00点(UTC)到 20日的 24点(UTC)
风速8节,风向东转东南
能见度10公里或以上
少量云层高于3000英尺, 积雨云.
散云层高于3300英尺
成为
从 20日的 12点(UTC)到 20日的 13点(UTC)
风速8节,风向北转西北

TAF: ZWSH 192124Z 2000/2024 12004MPS 9999 FEW030CB SCT033 TX26/2009Z TN18/2000Z BECMG 2012/2013 34004MPS

超过4000个机场的气象观测和天气预报(METAR&TAF报告)。

可查询的气象台以黄色和红色小点在地图上表示。

将鼠标移到小点上方,可查看气象台名称。

然后点击查看天气观测和预报。

如需切换地图:点击带黑十字的绿色按钮放大地图;点击带横线的绿色按钮缩小地图;或者点击绿色箭头查看邻近地区的地图。


METAR-TAF: